CD07 weather

Poudre Valley Hospital Heliport
Fort Collins, Colorado, United States

Public forecast

Using degrees Fahrenheit for public forecast. Weather courtesy of forecast.io.

Closest aviation weather report (METAR) to Poudre Valley Hospital Heliport

Closest report is Northern Colorado Regional Airport, 7.5 nm (13.9 km) SSE. Retrieved 2020/02/21 23:56 UTC (30 minutes ago):

KFNL 212356Z AUTO 00000KT 10SM CLR 08/M08 A3015 RMK AO2 SLP238 T00831083 10128 20011 56008

Closest aviation forecast (TAF) to Poudre Valley Hospital Heliport

Closest forecast is Cheyenne Regional Jerry Olson Field, 36.8 nm (68.1 km) NNE. Retrieved 2020-02-22 00:22 UTC (4 minutes ago):

TAF KCYS 212320Z 2200/2224 24009KT P6SM SKC FM220600 28020G30KT P6SM SKC FM221600 26015G25KT P6SM SKC